createdAt,value
2022-08-16T00:00:48.093Z,20.27
2022-08-16T00:01:47.388Z,20.30
2022-08-16T00:02:47.731Z,20.29
2022-08-16T00:03:47.778Z,20.29
2022-08-16T00:04:48.017Z,20.27
2022-08-16T00:05:49.113Z,20.27
2022-08-16T00:06:49.463Z,20.27
2022-08-16T00:07:48.678Z,20.26
2022-08-16T00:08:49.860Z,20.29
2022-08-16T00:09:49.077Z,20.26
2022-08-16T00:10:49.308Z,20.30
2022-08-16T00:11:52.701Z,20.29
2022-08-16T00:12:50.729Z,20.27
2022-08-16T00:13:54.222Z,20.29
2022-08-16T00:14:51.107Z,20.29
2022-08-16T00:15:54.136Z,20.29
2022-08-16T00:17:06.680Z,20.27
2022-08-16T00:17:57.065Z,20.26
2022-08-16T00:18:52.215Z,20.24
2022-08-16T00:19:53.479Z,20.22
2022-08-16T00:20:51.631Z,20.22
2022-08-16T00:21:53.244Z,20.24
2022-08-16T00:22:52.016Z,20.29
2022-08-16T00:23:52.308Z,20.26
2022-08-16T00:24:52.435Z,20.21
2022-08-16T00:26:35.104Z,20.22
2022-08-16T00:26:53.858Z,20.22
2022-08-16T00:27:53.112Z,20.18
2022-08-16T00:28:54.935Z,20.18
2022-08-16T00:30:08.512Z,20.17
2022-08-16T00:30:54.760Z,20.15
2022-08-16T00:32:01.470Z,20.14
2022-08-16T00:32:57.255Z,20.12
2022-08-16T00:33:54.510Z,20.11
2022-08-16T00:34:54.737Z,20.08
2022-08-16T00:35:56.040Z,20.10
2022-08-16T00:36:55.958Z,20.08
2022-08-16T00:37:58.252Z,20.10
2022-08-16T00:38:56.304Z,20.08
2022-08-16T00:39:58.476Z,20.03
2022-08-16T00:40:56.286Z,20.03
2022-08-16T00:41:56.525Z,20.02
2022-08-16T00:42:56.772Z,20.03
2022-08-16T00:43:57.014Z,20.03
2022-08-16T00:44:57.228Z,20.00
2022-08-16T00:45:59.911Z,20.00
2022-08-16T00:47:06.188Z,19.96
2022-08-16T00:47:58.895Z,19.94
2022-08-16T00:48:58.120Z,19.94
2022-08-16T00:49:58.366Z,19.93
2022-08-16T00:50:58.610Z,19.93
2022-08-16T00:51:58.791Z,19.90
2022-08-16T00:52:59.304Z,19.90
2022-08-16T00:53:59.317Z,19.89
2022-08-16T00:54:59.620Z,19.89
2022-08-16T00:55:59.818Z,19.87
2022-08-16T00:57:00.363Z,19.85
2022-08-16T00:58:00.885Z,19.85
2022-08-16T00:59:01.401Z,19.84
2022-08-16T01:00:01.036Z,19.84
2022-08-16T01:01:01.000Z,19.82
2022-08-16T01:02:01.219Z,19.84
2022-08-16T01:03:02.522Z,19.82
2022-08-16T01:04:01.751Z,19.79
2022-08-16T01:05:10.812Z,19.78
2022-08-16T01:06:32.663Z,19.79
2022-08-16T01:07:03.464Z,19.78
2022-08-16T01:08:02.678Z,19.78
2022-08-16T01:09:03.841Z,19.78
2022-08-16T01:10:03.089Z,19.75
2022-08-16T01:11:04.388Z,19.77
2022-08-16T01:12:03.577Z,19.75
2022-08-16T01:13:04.597Z,19.74
2022-08-16T01:14:04.050Z,19.75
2022-08-16T01:15:04.273Z,19.74
2022-08-16T01:16:04.500Z,19.72
2022-08-16T01:17:08.409Z,19.72
2022-08-16T01:18:05.002Z,19.72
2022-08-16T01:19:05.164Z,19.72
2022-08-16T01:20:24.497Z,19.71
2022-08-16T01:21:06.559Z,19.72
2022-08-16T01:22:49.828Z,19.72
2022-08-16T01:23:08.560Z,19.71
2022-08-16T01:24:06.153Z,19.70
2022-08-16T01:25:07.341Z,19.70
2022-08-16T01:26:34.298Z,19.70
2022-08-16T01:27:07.793Z,19.66
2022-08-16T01:28:07.027Z,19.66
2022-08-16T01:29:09.856Z,19.64
2022-08-16T01:30:20.584Z,19.63
2022-08-16T01:31:08.672Z,19.63
2022-08-16T01:32:09.213Z,19.64
2022-08-16T01:33:15.026Z,19.60
2022-08-16T01:34:09.391Z,19.59
2022-08-16T01:35:16.749Z,19.59
2022-08-16T01:36:12.293Z,19.59
2022-08-16T01:37:09.086Z,19.59
2022-08-16T01:38:09.195Z,19.59
2022-08-16T01:39:11.634Z,19.59
2022-08-16T01:40:09.682Z,19.57
2022-08-16T01:41:09.800Z,19.59
2022-08-16T01:42:13.093Z,19.60
2022-08-16T01:43:10.305Z,19.57
2022-08-16T01:44:10.573Z,19.56
2022-08-16T01:45:10.801Z,19.56
2022-08-16T01:46:37.684Z,19.55
2022-08-16T01:47:12.343Z,19.55
2022-08-16T01:48:19.547Z,19.55
2022-08-16T01:49:12.772Z,19.52
2022-08-16T01:50:42.407Z,19.48
2022-08-16T01:51:16.969Z,19.47
2022-08-16T01:52:27.755Z,19.47
2022-08-16T01:53:13.600Z,19.47
2022-08-16T01:54:13.253Z,19.47
2022-08-16T01:55:13.013Z,19.47
2022-08-16T01:56:24.946Z,19.47
2022-08-16T01:57:14.465Z,19.47
2022-08-16T01:58:13.709Z,19.47
2022-08-16T01:59:15.705Z,19.45
2022-08-16T02:00:14.119Z,19.45
2022-08-16T02:01:15.334Z,19.47
2022-08-16T02:02:27.438Z,19.52
2022-08-16T02:03:15.703Z,19.49
2022-08-16T02:04:14.943Z,19.48
2022-08-16T02:05:16.116Z,19.44
2022-08-16T02:06:15.341Z,19.44
2022-08-16T02:07:16.520Z,19.45
2022-08-16T02:08:33.857Z,19.45
2022-08-16T02:09:17.753Z,19.44
2022-08-16T02:10:16.247Z,19.44
2022-08-16T02:11:16.480Z,19.45
2022-08-16T02:12:49.559Z,19.44
2022-08-16T02:13:18.008Z,19.44
2022-08-16T02:14:17.943Z,19.44
2022-08-16T02:15:17.430Z,19.44
2022-08-16T02:16:19.088Z,19.45
2022-08-16T02:17:17.949Z,19.44
2022-08-16T02:18:18.653Z,19.41
2022-08-16T02:19:18.611Z,19.37
2022-08-16T02:20:18.633Z,19.37
2022-08-16T02:21:31.045Z,19.39
2022-08-16T02:22:35.822Z,19.41
2022-08-16T02:23:20.300Z,19.39
2022-08-16T02:24:32.704Z,19.44
2022-08-16T02:25:20.708Z,19.44
2022-08-16T02:26:19.937Z,19.42
2022-08-16T02:27:20.181Z,19.41
2022-08-16T02:28:20.401Z,19.42
2022-08-16T02:29:20.883Z,19.42
2022-08-16T02:30:35.805Z,19.42
2022-08-16T02:31:21.988Z,19.42
2022-08-16T02:32:49.932Z,19.39
2022-08-16T02:33:24.311Z,19.41
2022-08-16T02:34:21.646Z,19.41
2022-08-16T02:35:23.230Z,19.38
2022-08-16T02:36:48.032Z,19.38
2022-08-16T02:37:23.277Z,19.38
2022-08-16T02:38:22.507Z,19.39
2022-08-16T02:39:23.118Z,19.38
2022-08-16T02:40:22.939Z,19.35
2022-08-16T02:41:23.182Z,19.38
2022-08-16T02:42:23.396Z,19.39
2022-08-16T02:43:26.933Z,19.42
2022-08-16T02:44:26.983Z,19.41
2022-08-16T02:45:24.687Z,19.38
2022-08-16T02:46:30.194Z,19.37
2022-08-16T02:47:25.832Z,19.35
2022-08-16T02:48:29.928Z,19.35
2022-08-16T02:50:52.610Z,19.37
2022-08-16T02:50:53.545Z,19.38
2022-08-16T02:51:26.414Z,19.37
2022-08-16T02:52:29.161Z,19.35
2022-08-16T02:53:25.835Z,19.34
2022-08-16T02:54:26.076Z,19.34
2022-08-16T02:55:40.760Z,19.30
2022-08-16T02:56:32.161Z,19.30
2022-08-16T02:57:27.882Z,19.27
2022-08-16T02:58:27.045Z,19.29
2022-08-16T02:59:27.311Z,19.30
2022-08-16T03:00:33.632Z,19.35
2022-08-16T03:01:37.237Z,19.37
2022-08-16T03:02:32.023Z,19.38
2022-08-16T03:04:39.640Z,19.38
2022-08-16T03:04:50.281Z,19.37
2022-08-16T03:05:30.896Z,19.32
2022-08-16T03:06:41.392Z,19.29
2022-08-16T03:07:30.145Z,19.29
2022-08-16T03:08:50.787Z,19.30
2022-08-16T03:09:32.682Z,19.30
2022-08-16T03:10:33.578Z,19.32
2022-08-16T03:11:35.591Z,19.34
2022-08-16T03:12:36.744Z,19.32
2022-08-16T03:13:31.367Z,19.34
2022-08-16T03:14:31.544Z,19.35
2022-08-16T03:15:30.843Z,19.34
2022-08-16T03:16:37.591Z,19.30
2022-08-16T03:17:32.454Z,19.29
2022-08-16T03:18:34.190Z,19.27
2022-08-16T03:19:46.815Z,19.27
2022-08-16T03:20:34.283Z,19.24
2022-08-16T03:21:37.686Z,19.23
2022-08-16T03:22:33.377Z,19.29
2022-08-16T03:23:35.888Z,19.32
2022-08-16T03:24:32.984Z,19.27
2022-08-16T03:25:40.861Z,19.26
2022-08-16T03:26:34.483Z,19.24
2022-08-16T03:27:33.678Z,19.27
2022-08-16T03:28:33.903Z,19.29
2022-08-16T03:29:34.260Z,19.27
2022-08-16T03:30:34.497Z,19.29
2022-08-16T03:31:40.500Z,19.27
2022-08-16T03:32:35.902Z,19.27
2022-08-16T03:33:35.133Z,19.29
2022-08-16T03:34:35.374Z,19.30
2022-08-16T03:35:35.602Z,19.30
2022-08-16T03:36:35.823Z,19.30
2022-08-16T03:37:49.060Z,19.32
2022-08-16T03:38:37.276Z,19.32
2022-08-16T03:39:42.886Z,19.35
2022-08-16T03:40:37.733Z,19.35
2022-08-16T03:41:50.715Z,19.34
2022-08-16T03:43:00.420Z,19.30
2022-08-16T03:43:51.949Z,19.30
2022-08-16T03:44:44.515Z,19.30
2022-08-16T03:45:38.892Z,19.30
2022-08-16T03:46:48.116Z,19.32
2022-08-16T03:48:51.510Z,19.29
2022-08-16T03:49:52.438Z,19.27
2022-08-16T03:51:00.036Z,19.29
2022-08-16T03:51:52.944Z,19.32
2022-08-16T03:52:52.787Z,19.34
2022-08-16T03:54:00.947Z,19.35
2022-08-16T03:54:57.897Z,19.32
2022-08-16T03:55:53.438Z,19.29
2022-08-16T03:56:57.152Z,19.30
2022-08-16T03:57:55.588Z,19.37
2022-08-16T03:58:52.856Z,19.35
2022-08-16T03:59:53.017Z,19.38
2022-08-16T04:00:56.926Z,19.37
2022-08-16T04:01:54.288Z,19.34
2022-08-16T04:02:53.437Z,19.34
2022-08-16T04:03:55.189Z,19.34
2022-08-16T04:04:53.702Z,19.32
2022-08-16T04:05:54.112Z,19.32
2022-08-16T04:06:53.958Z,19.34
2022-08-16T04:07:54.112Z,19.37
2022-08-16T04:08:54.268Z,19.35
2022-08-16T04:09:54.436Z,19.34
2022-08-16T04:10:54.919Z,19.34
2022-08-16T04:11:54.755Z,19.32
2022-08-16T04:13:00.630Z,19.32
2022-08-16T04:14:01.060Z,19.35
2022-08-16T04:14:56.100Z,19.37
2022-08-16T04:15:55.256Z,19.34
2022-08-16T04:16:55.439Z,19.35
2022-08-16T04:17:55.594Z,19.37
2022-08-16T04:19:01.335Z,19.38
2022-08-16T04:19:58.102Z,19.39
2022-08-16T04:20:56.392Z,19.42
2022-08-16T04:21:56.826Z,19.42
2022-08-16T04:22:56.345Z,19.47
2022-08-16T04:23:56.505Z,19.44
2022-08-16T04:24:59.493Z,19.44
2022-08-16T04:25:56.851Z,19.45
2022-08-16T04:26:57.961Z,19.48
2022-08-16T04:27:57.106Z,19.49
2022-08-16T04:29:16.350Z,19.52
2022-08-16T04:30:02.916Z,19.49
2022-08-16T04:30:58.673Z,19.53
2022-08-16T04:31:58.318Z,19.56
2022-08-16T04:32:57.947Z,19.59
2022-08-16T04:33:58.120Z,19.62
2022-08-16T04:34:59.530Z,19.64
2022-08-16T04:35:58.427Z,19.60
2022-08-16T04:36:58.584Z,19.60
2022-08-16T04:37:58.742Z,19.63
2022-08-16T04:38:58.911Z,19.67
2022-08-16T04:39:59.049Z,19.67
2022-08-16T04:40:59.097Z,19.72
2022-08-16T04:41:59.213Z,19.71
2022-08-16T04:43:00.319Z,19.71
2022-08-16T04:43:59.476Z,19.72
2022-08-16T04:45:02.002Z,19.72
2022-08-16T04:46:00.779Z,19.75
2022-08-16T04:47:01.027Z,19.77
2022-08-16T04:48:00.047Z,19.79
2022-08-16T04:49:00.186Z,19.81
2022-08-16T04:50:00.797Z,19.78
2022-08-16T04:51:00.506Z,19.79
2022-08-16T04:52:00.688Z,19.82
2022-08-16T04:53:00.814Z,19.89
2022-08-16T04:54:00.983Z,19.92
2022-08-16T04:55:01.125Z,19.93
2022-08-16T04:56:01.308Z,19.94
2022-08-16T04:57:01.471Z,19.96
2022-08-16T04:58:01.583Z,20.00
2022-08-16T04:59:02.709Z,20.04
2022-08-16T05:00:32.717Z,20.04
2022-08-16T05:01:02.982Z,20.07
2022-08-16T05:02:03.157Z,20.08
2022-08-16T05:03:07.571Z,20.11
2022-08-16T05:04:03.424Z,20.08
2022-08-16T05:05:02.573Z,20.12
2022-08-16T05:06:04.982Z,20.15
2022-08-16T05:07:02.934Z,20.15
2022-08-16T05:08:27.967Z,20.19
2022-08-16T05:09:04.127Z,20.22
2022-08-16T05:10:03.287Z,20.27
2022-08-16T05:11:05.469Z,20.27
2022-08-16T05:12:03.621Z,20.26
2022-08-16T05:13:03.805Z,20.21
2022-08-16T05:14:06.873Z,20.21
2022-08-16T05:15:04.075Z,20.24
2022-08-16T05:16:04.233Z,20.29
2022-08-16T05:17:04.363Z,20.30
2022-08-16T05:18:04.577Z,20.33
2022-08-16T05:19:04.724Z,20.34
2022-08-16T05:20:38.906Z,20.34
2022-08-16T05:21:10.950Z,20.34
2022-08-16T05:22:06.055Z,20.32
2022-08-16T05:23:06.383Z,20.32
2022-08-16T05:24:06.146Z,20.34
2022-08-16T05:25:08.832Z,20.37
2022-08-16T05:26:05.733Z,20.40
2022-08-16T05:27:11.430Z,20.44
2022-08-16T05:28:06.950Z,20.50
2022-08-16T05:29:06.123Z,20.50
2022-08-16T05:30:34.851Z,20.52
2022-08-16T05:31:07.379Z,20.49
2022-08-16T05:32:33.722Z,20.56
2022-08-16T05:33:08.875Z,20.56
2022-08-16T05:34:17.784Z,20.58
2022-08-16T05:35:10.817Z,20.67
2022-08-16T05:36:14.088Z,20.68
2022-08-16T05:37:08.161Z,20.64
2022-08-16T05:38:32.407Z,20.63
2022-08-16T05:39:08.637Z,20.64
2022-08-16T05:40:07.677Z,20.63
2022-08-16T05:41:09.340Z,20.63
2022-08-16T05:42:07.896Z,20.66
2022-08-16T05:43:08.057Z,20.73
2022-08-16T05:44:22.533Z,20.75
2022-08-16T05:45:09.319Z,20.74
2022-08-16T05:46:28.711Z,20.73
2022-08-16T05:47:09.575Z,20.78
2022-08-16T05:48:09.672Z,20.86
2022-08-16T05:49:09.510Z,20.83
2022-08-16T05:50:08.910Z,20.88
2022-08-16T05:51:10.000Z,20.88
2022-08-16T05:52:11.761Z,20.95
2022-08-16T05:53:09.951Z,20.96
2022-08-16T05:54:11.145Z,20.98
2022-08-16T05:55:09.647Z,20.98
2022-08-16T05:56:09.730Z,21.00
2022-08-16T05:57:13.473Z,21.03
2022-08-16T05:58:09.978Z,21.05
2022-08-16T05:59:11.115Z,21.14
2022-08-16T06:00:10.320Z,21.17
2022-08-16T06:01:10.395Z,21.22
2022-08-16T06:02:10.438Z,21.25
2022-08-16T06:03:13.171Z,21.29
2022-08-16T06:04:12.916Z,21.32
2022-08-16T06:05:11.147Z,21.40
2022-08-16T06:06:10.953Z,21.47
2022-08-16T06:07:24.356Z,21.54
2022-08-16T06:08:32.153Z,21.62
2022-08-16T06:09:12.258Z,21.60
2022-08-16T06:10:11.393Z,21.66
2022-08-16T06:11:13.443Z,21.65
2022-08-16T06:12:11.679Z,21.70
2022-08-16T06:13:11.847Z,21.75
2022-08-16T06:14:13.135Z,21.80
2022-08-16T06:15:12.094Z,21.89
2022-08-16T06:16:18.046Z,21.88
2022-08-16T06:17:13.446Z,21.94
2022-08-16T06:18:13.556Z,22.04
2022-08-16T06:19:12.615Z,22.10
2022-08-16T06:20:12.805Z,22.15
2022-08-16T06:21:12.934Z,22.23
2022-08-16T06:22:37.657Z,22.36
2022-08-16T06:23:17.589Z,22.44
2022-08-16T06:24:53.345Z,22.47
2022-08-16T06:25:19.688Z,22.55
2022-08-16T06:26:14.416Z,22.65
2022-08-16T06:27:13.565Z,22.74
2022-08-16T06:28:16.681Z,22.86
2022-08-16T06:29:13.824Z,22.96
2022-08-16T06:30:14.014Z,23.04
2022-08-16T06:31:15.155Z,22.99
2022-08-16T06:32:27.846Z,23.13
2022-08-16T06:33:19.878Z,23.21
2022-08-16T06:34:56.081Z,23.29
2022-08-16T06:35:15.565Z,23.45
2022-08-16T06:36:14.899Z,23.49
2022-08-16T06:37:14.794Z,23.52
2022-08-16T06:38:33.790Z,23.66
2022-08-16T06:39:16.005Z,23.81
2022-08-16T06:40:15.787Z,23.81
2022-08-16T06:41:15.332Z,23.94
2022-08-16T06:42:18.388Z,24.03
2022-08-16T06:43:15.562Z,24.18
2022-08-16T06:44:21.519Z,24.37
2022-08-16T06:45:17.423Z,24.59
2022-08-16T06:46:15.996Z,24.85
2022-08-16T06:47:16.837Z,25.00
2022-08-16T06:48:18.885Z,25.09
2022-08-16T06:49:16.239Z,25.25
2022-08-16T06:50:22.150Z,25.31
2022-08-16T06:51:17.455Z,25.26
2022-08-16T06:52:59.615Z,25.49
2022-08-16T06:53:18.087Z,25.66
2022-08-16T06:54:16.834Z,26.03
2022-08-16T06:55:17.822Z,26.15
2022-08-16T06:56:23.157Z,26.18
2022-08-16T06:57:18.158Z,26.27
2022-08-16T06:58:22.848Z,26.49
2022-08-16T06:59:18.266Z,26.59
2022-08-16T07:00:24.169Z,26.78
2022-08-16T07:01:23.032Z,26.98
2022-08-16T07:02:33.052Z,27.22
2022-08-16T07:03:27.601Z,27.19
2022-08-16T07:04:32.704Z,27.28
2022-08-16T07:05:18.822Z,27.34
2022-08-16T07:06:17.926Z,27.76
2022-08-16T07:07:17.966Z,27.91
2022-08-16T07:08:18.093Z,27.86
2022-08-16T07:09:18.235Z,27.94
2022-08-16T07:10:18.278Z,28.09
2022-08-16T07:11:18.405Z,28.09
2022-08-16T07:12:18.494Z,28.23
2022-08-16T07:13:43.945Z,28.35
2022-08-16T07:14:24.432Z,28.16
2022-08-16T07:15:19.836Z,27.88
2022-08-16T07:16:20.585Z,27.93
2022-08-16T07:17:18.947Z,28.01
2022-08-16T07:18:19.059Z,28.37
2022-08-16T07:19:19.473Z,28.46
2022-08-16T07:20:35.454Z,28.86
2022-08-16T07:21:20.371Z,29.09
2022-08-16T07:22:37.965Z,29.05
2022-08-16T07:23:21.438Z,28.70
2022-08-16T07:24:30.581Z,28.60
2022-08-16T07:25:20.675Z,28.83
2022-08-16T07:26:24.871Z,28.62
2022-08-16T07:27:20.803Z,28.84
2022-08-16T07:28:21.001Z,28.90
2022-08-16T07:29:20.045Z,29.10
2022-08-16T07:30:39.543Z,29.37
2022-08-16T07:31:21.132Z,29.83
2022-08-16T07:32:20.286Z,29.43
2022-08-16T07:33:51.311Z,29.10
2022-08-16T07:34:35.685Z,28.94
2022-08-16T07:35:21.456Z,29.00
2022-08-16T07:36:21.679Z,28.92
2022-08-16T07:37:23.244Z,29.24
2022-08-16T07:38:31.842Z,29.42
2022-08-16T07:39:21.984Z,29.58
2022-08-16T07:40:31.833Z,29.95
2022-08-16T07:41:21.966Z,30.13
2022-08-16T07:42:28.369Z,29.95
2022-08-16T07:43:22.149Z,29.42
2022-08-16T07:44:21.273Z,29.67
2022-08-16T07:45:21.359Z,30.06
2022-08-16T07:46:38.470Z,30.16
2022-08-16T07:47:24.722Z,30.02
2022-08-16T07:48:22.581Z,30.08
2022-08-16T07:49:22.679Z,30.10
2022-08-16T07:50:56.213Z,29.94
2022-08-16T07:51:22.686Z,29.94
2022-08-16T07:52:21.802Z,30.02
2022-08-16T07:53:21.900Z,30.03
2022-08-16T07:54:32.249Z,29.71
2022-08-16T07:55:23.107Z,29.89
2022-08-16T07:56:22.082Z,30.18
2022-08-16T07:57:24.511Z,30.11
2022-08-16T07:58:34.765Z,30.03
2022-08-16T07:59:23.286Z,30.03
2022-08-16T08:00:22.399Z,29.79
2022-08-16T08:01:22.464Z,30.01
2022-08-16T08:02:22.471Z,30.16
2022-08-16T08:03:23.649Z,30.02
2022-08-16T08:04:23.559Z,30.39
2022-08-16T08:05:25.291Z,30.27
2022-08-16T08:06:24.772Z,30.40
2022-08-16T08:07:23.014Z,30.71
2022-08-16T08:08:49.128Z,30.58
2022-08-16T08:09:23.850Z,30.56
2022-08-16T08:10:29.292Z,30.40
2022-08-16T08:11:24.076Z,30.03
2022-08-16T08:12:32.694Z,30.13
2022-08-16T08:13:41.990Z,30.35
2022-08-16T08:14:29.809Z,30.13
2022-08-16T08:15:25.446Z,29.92
2022-08-16T08:16:30.658Z,29.96
2022-08-16T08:17:24.221Z,30.10
2022-08-16T08:18:30.347Z,30.48
2022-08-16T08:19:24.372Z,30.85
2022-08-16T08:20:27.852Z,30.63
2022-08-16T08:21:26.218Z,30.56
2022-08-16T08:22:23.371Z,30.61
2022-08-16T08:23:23.469Z,30.76
2022-08-16T08:24:31.687Z,30.73
2022-08-16T08:25:24.541Z,30.71
2022-08-16T08:26:24.302Z,30.63
2022-08-16T08:27:23.900Z,30.80
2022-08-16T08:28:23.734Z,30.52
2022-08-16T08:29:24.762Z,30.74
2022-08-16T08:30:51.694Z,30.48
2022-08-16T08:31:24.863Z,30.67
2022-08-16T08:32:58.459Z,30.40
2022-08-16T08:33:24.852Z,30.65
2022-08-16T08:34:23.859Z,30.49
2022-08-16T08:35:24.404Z,30.51
2022-08-16T08:36:23.923Z,30.35
2022-08-16T08:37:24.922Z,30.70
2022-08-16T08:38:45.101Z,30.70
2022-08-16T08:39:24.941Z,31.02
2022-08-16T08:40:24.711Z,31.51
2022-08-16T08:41:28.305Z,31.79
2022-08-16T08:42:26.576Z,31.69
2022-08-16T08:43:23.955Z,31.52
2022-08-16T08:44:29.087Z,31.55
2022-08-16T08:45:46.964Z,31.63
2022-08-16T08:46:25.036Z,31.69
2022-08-16T08:47:24.131Z,31.85
2022-08-16T08:48:33.570Z,31.78
2022-08-16T08:49:46.176Z,31.89
2022-08-16T08:50:31.984Z,31.74
2022-08-16T08:51:25.054Z,31.55
2022-08-16T08:52:34.868Z,31.33
2022-08-16T08:53:29.948Z,31.52
2022-08-16T08:54:25.084Z,31.35
2022-08-16T08:55:24.078Z,31.32
2022-08-16T08:56:25.328Z,31.55
2022-08-16T08:57:24.034Z,31.36
2022-08-16T08:58:23.991Z,31.28
2022-08-16T08:59:24.963Z,31.18
2022-08-16T09:00:26.867Z,31.52
2022-08-16T09:01:31.841Z,31.89
2022-08-16T09:02:24.956Z,32.35
2022-08-16T09:03:23.971Z,32.24
2022-08-16T09:04:24.056Z,32.17
2022-08-16T09:05:23.955Z,31.64
2022-08-16T09:06:24.924Z,31.60
2022-08-16T09:07:23.995Z,31.85
2022-08-16T09:08:26.553Z,31.82
2022-08-16T09:09:23.923Z,31.82
2022-08-16T09:10:24.027Z,31.90
2022-08-16T09:11:40.827Z,31.66
2022-08-16T09:12:36.587Z,31.51
2022-08-16T09:13:24.866Z,31.55
2022-08-16T09:14:25.014Z,31.90
2022-08-16T09:15:24.139Z,32.23
2022-08-16T09:17:02.819Z,32.44
2022-08-16T09:17:54.920Z,32.48
2022-08-16T09:18:26.851Z,32.15
2022-08-16T09:19:33.184Z,31.81
2022-08-16T09:20:25.407Z,31.23
2022-08-16T09:21:31.453Z,31.23
2022-08-16T09:22:24.631Z,31.20
2022-08-16T09:23:23.657Z,31.36
2022-08-16T09:24:48.803Z,31.79
2022-08-16T09:25:26.378Z,31.93
2022-08-16T09:26:45.522Z,31.64
2022-08-16T09:27:25.213Z,31.59
2022-08-16T09:29:13.634Z,31.69
2022-08-16T09:29:44.691Z,31.60
2022-08-16T09:30:34.333Z,31.69
2022-08-16T09:31:24.629Z,32.00
2022-08-16T09:32:28.737Z,32.35
2022-08-16T09:33:25.247Z,32.12
2022-08-16T09:34:23.424Z,32.27
2022-08-16T09:35:23.430Z,32.04
2022-08-16T09:36:32.073Z,32.09
2022-08-16T09:37:29.701Z,32.01
2022-08-16T09:38:32.025Z,32.11
2022-08-16T09:39:24.299Z,32.35
2022-08-16T09:40:33.048Z,32.20
2022-08-16T09:41:24.176Z,32.23
2022-08-16T09:42:23.167Z,32.27
2022-08-16T09:43:53.236Z,32.16
2022-08-16T09:45:09.238Z,32.19
2022-08-16T09:45:24.099Z,32.46
2022-08-16T09:46:44.444Z,32.46
2022-08-16T09:47:24.077Z,32.59
2022-08-16T09:48:44.194Z,32.91
2022-08-16T09:49:24.097Z,32.88
2022-08-16T09:50:23.308Z,33.16
2022-08-16T09:51:23.437Z,33.26
2022-08-16T09:52:22.995Z,33.35
2022-08-16T09:53:22.994Z,32.95
2022-08-16T09:54:22.982Z,32.61
2022-08-16T09:55:22.972Z,32.85
2022-08-16T09:56:22.891Z,33.16
2022-08-16T09:57:22.899Z,32.98
2022-08-16T09:58:41.461Z,32.66
2022-08-16T09:59:23.930Z,32.64
2022-08-16T10:00:42.644Z,32.91
2022-08-16T10:01:23.757Z,33.03
2022-08-16T10:02:25.883Z,33.10
2022-08-16T10:03:22.683Z,33.13
2022-08-16T10:04:31.698Z,32.98
2022-08-16T10:05:23.576Z,33.10
2022-08-16T10:06:22.568Z,33.29
2022-08-16T10:07:22.551Z,33.20
2022-08-16T10:08:26.307Z,33.03
2022-08-16T10:09:22.489Z,33.20
2022-08-16T10:10:30.518Z,32.93
2022-08-16T10:11:24.624Z,33.04
2022-08-16T10:12:22.259Z,32.64
2022-08-16T10:13:22.256Z,32.71
2022-08-16T10:14:24.849Z,32.97
2022-08-16T10:15:23.172Z,33.15
2022-08-16T10:16:22.347Z,33.32
2022-08-16T10:17:22.051Z,33.79
2022-08-16T10:19:01.033Z,34.10
2022-08-16T10:19:22.959Z,34.69
2022-08-16T10:20:21.942Z,34.88
2022-08-16T10:21:23.492Z,34.65
2022-08-16T10:22:23.036Z,34.24
2022-08-16T10:23:21.846Z,34.24
2022-08-16T10:24:28.034Z,34.46
2022-08-16T10:27:19.333Z,34.40
2022-08-16T10:27:20.234Z,34.32
2022-08-16T10:27:26.752Z,34.04
2022-08-16T10:28:32.060Z,33.42
2022-08-16T10:29:22.514Z,33.28
2022-08-16T10:30:28.569Z,33.26
2022-08-16T10:31:45.529Z,33.15
2022-08-16T10:32:22.348Z,32.86
2022-08-16T10:33:21.310Z,32.95
2022-08-16T10:34:30.932Z,33.23
2022-08-16T10:35:22.830Z,33.03
2022-08-16T10:36:38.982Z,32.78
2022-08-16T10:37:32.774Z,33.03
2022-08-16T10:38:27.280Z,33.22
2022-08-16T10:39:21.972Z,33.48
2022-08-16T10:40:29.955Z,33.15
2022-08-16T10:41:25.163Z,33.13
2022-08-16T10:42:20.812Z,33.32
2022-08-16T10:43:20.803Z,33.57
2022-08-16T10:44:20.819Z,33.38
2022-08-16T10:45:20.835Z,33.53
2022-08-16T10:46:33.917Z,33.48
2022-08-16T10:47:21.701Z,33.75
2022-08-16T10:48:27.448Z,34.11
2022-08-16T10:49:21.497Z,34.11
2022-08-16T10:50:20.562Z,32.97
2022-08-16T10:51:20.395Z,32.60
2022-08-16T10:52:21.349Z,32.30
2022-08-16T10:53:21.726Z,32.75
2022-08-16T10:54:29.608Z,32.73
2022-08-16T10:56:52.878Z,32.22
2022-08-16T10:57:21.253Z,31.93
2022-08-16T10:58:20.292Z,32.08
2022-08-16T10:59:45.125Z,32.78
2022-08-16T11:00:22.793Z,33.54
2022-08-16T11:01:43.338Z,33.61
2022-08-16T11:02:59.422Z,33.65
2022-08-16T11:05:05.639Z,34.13
2022-08-16T11:05:21.154Z,34.50
2022-08-16T11:06:21.521Z,35.31
2022-08-16T11:08:23.610Z,36.50
2022-08-16T11:09:25.810Z,36.55
2022-08-16T11:11:01.558Z,36.08
2022-08-16T11:11:20.793Z,35.86
2022-08-16T11:12:19.765Z,36.33
2022-08-16T11:14:20.675Z,36.25
2022-08-16T11:15:19.676Z,35.45
2022-08-16T11:16:27.579Z,34.07
2022-08-16T11:17:20.616Z,33.29
2022-08-16T11:19:03.061Z,33.89
2022-08-16T11:19:20.531Z,34.51
2022-08-16T11:21:28.490Z,34.94
2022-08-16T11:22:38.771Z,34.69
2022-08-16T11:23:20.357Z,34.29
2022-08-16T11:24:40.169Z,33.58
2022-08-16T11:26:24.012Z,33.15
2022-08-16T11:27:20.345Z,33.01
2022-08-16T11:29:20.088Z,33.76
2022-08-16T11:30:19.892Z,34.09
2022-08-16T11:31:20.078Z,34.50
2022-08-16T11:32:20.207Z,34.93
2022-08-16T11:33:19.025Z,35.30
2022-08-16T11:34:19.795Z,35.71
2022-08-16T11:35:19.054Z,36.31
2022-08-16T11:36:27.420Z,36.72
2022-08-16T11:37:27.186Z,36.57
2022-08-16T11:38:23.453Z,35.84
2022-08-16T11:39:19.733Z,35.61
2022-08-16T11:40:19.581Z,35.54
2022-08-16T11:41:18.587Z,35.69
2022-08-16T11:42:23.210Z,35.50
2022-08-16T11:43:19.544Z,35.00
2022-08-16T11:44:20.483Z,35.34
2022-08-16T11:45:19.483Z,35.52
2022-08-16T11:46:43.414Z,35.53
2022-08-16T11:47:19.409Z,35.68
2022-08-16T11:48:18.400Z,36.26
2022-08-16T11:49:18.378Z,36.39
2022-08-16T11:50:18.379Z,36.08
2022-08-16T11:51:18.357Z,35.82
2022-08-16T11:52:18.347Z,36.22
2022-08-16T11:53:18.268Z,36.03
2022-08-16T11:54:21.378Z,35.90
2022-08-16T11:55:18.233Z,35.42
2022-08-16T11:56:28.587Z,34.81
2022-08-16T11:57:19.218Z,34.38
2022-08-16T11:58:18.221Z,34.11
2022-08-16T11:59:18.212Z,33.77
2022-08-16T12:00:49.657Z,33.39
2022-08-16T12:01:19.257Z,33.75
2022-08-16T12:02:32.569Z,34.24
2022-08-16T12:03:19.175Z,34.85
2022-08-16T12:04:18.223Z,35.64
2022-08-16T12:05:18.145Z,36.29
2022-08-16T12:06:25.007Z,36.75
2022-08-16T12:07:19.098Z,36.31
2022-08-16T12:08:18.172Z,35.81
2022-08-16T12:09:18.112Z,35.23
2022-08-16T12:10:18.126Z,35.63
2022-08-16T12:11:18.128Z,36.32
2022-08-16T12:12:18.618Z,36.47
2022-08-16T12:13:18.157Z,36.44
2022-08-16T12:14:18.153Z,36.53
2022-08-16T12:15:18.178Z,36.92
2022-08-16T12:16:20.640Z,37.19
2022-08-16T12:17:18.148Z,37.22
2022-08-16T12:18:20.611Z,36.53
2022-08-16T12:19:18.152Z,35.66
2022-08-16T12:20:18.668Z,35.19
2022-08-16T12:21:18.103Z,35.37
2022-08-16T12:22:19.381Z,35.86
2022-08-16T12:23:18.151Z,35.78
2022-08-16T12:24:18.168Z,35.63
2022-08-16T12:25:18.190Z,36.43
2022-08-16T12:26:18.207Z,36.97
2022-08-16T12:27:18.222Z,36.84
2022-08-16T12:28:36.688Z,37.07
2022-08-16T12:29:19.192Z,36.80
2022-08-16T12:30:26.270Z,36.31
2022-08-16T12:31:19.193Z,35.75
2022-08-16T12:32:37.630Z,35.04
2022-08-16T12:33:25.434Z,34.70
2022-08-16T12:34:19.807Z,34.31
2022-08-16T12:35:19.137Z,33.98
2022-08-16T12:36:18.162Z,33.82
2022-08-16T12:37:18.173Z,33.66
2022-08-16T12:38:41.200Z,33.19
2022-08-16T12:39:19.192Z,32.85
2022-08-16T12:40:24.561Z,32.64
2022-08-16T12:41:25.383Z,32.53
2022-08-16T12:42:19.234Z,32.41
2022-08-16T12:43:18.202Z,32.17
2022-08-16T12:44:19.868Z,32.00
2022-08-16T12:45:19.073Z,31.86
2022-08-16T12:46:18.231Z,31.63
2022-08-16T12:47:18.279Z,31.57
2022-08-16T12:48:34.969Z,31.67
2022-08-16T12:49:19.356Z,31.62
2022-08-16T12:50:18.484Z,31.67
2022-08-16T12:51:22.176Z,31.73
2022-08-16T12:52:33.196Z,32.16
2022-08-16T12:53:19.628Z,33.12
2022-08-16T12:54:18.643Z,33.55
2022-08-16T12:55:18.714Z,33.39
2022-08-16T12:56:18.871Z,33.29
2022-08-16T12:57:18.781Z,33.45
2022-08-16T12:58:48.504Z,33.76
2022-08-16T12:59:20.602Z,33.85
2022-08-16T13:00:26.933Z,34.00
2022-08-16T13:01:22.701Z,34.71
2022-08-16T13:02:22.936Z,35.41